createdAt,value
2024-01-11T00:01:51.393Z,73.98
2024-01-11T00:03:54.175Z,73.70
2024-01-11T00:05:57.160Z,74.02
2024-01-11T00:08:00.049Z,73.87
2024-01-11T00:10:05.096Z,74.10
2024-01-11T00:12:08.151Z,74.45
2024-01-11T00:14:11.575Z,74.36
2024-01-11T00:16:14.307Z,73.46
2024-01-11T00:18:17.170Z,74.29
2024-01-11T00:20:20.423Z,74.17
2024-01-11T00:22:23.223Z,74.07
2024-01-11T00:24:26.036Z,74.18
2024-01-11T00:26:28.969Z,73.93
2024-01-11T00:28:31.483Z,73.48
2024-01-11T00:30:34.167Z,74.24
2024-01-11T00:32:36.830Z,73.54
2024-01-11T00:34:40.821Z,73.95
2024-01-11T00:36:44.141Z,73.69
2024-01-11T00:38:47.459Z,73.84
2024-01-11T00:40:50.789Z,73.54
2024-01-11T00:42:53.184Z,74.19
2024-01-11T00:44:55.905Z,74.14
2024-01-11T00:46:58.740Z,74.12
2024-01-11T00:49:02.183Z,73.65
2024-01-11T00:51:08.719Z,73.69
2024-01-11T00:53:12.669Z,73.74
2024-01-11T00:55:15.612Z,74.51
2024-01-11T00:57:19.864Z,74.12
2024-01-11T00:59:23.655Z,74.01
2024-01-11T01:01:26.401Z,74.44
2024-01-11T01:03:28.784Z,74.45
2024-01-11T01:05:31.701Z,74.46
2024-01-11T01:07:34.224Z,74.50
2024-01-11T01:09:36.699Z,74.10
2024-01-11T01:11:39.299Z,74.29
2024-01-11T01:13:41.549Z,74.42
2024-01-11T01:15:43.969Z,73.94
2024-01-11T01:17:46.573Z,73.90
2024-01-11T01:19:49.448Z,73.25
2024-01-11T01:21:52.259Z,73.66
2024-01-11T01:23:55.584Z,73.43
2024-01-11T01:25:58.975Z,73.66
2024-01-11T01:28:02.534Z,73.12
2024-01-11T01:30:06.550Z,73.41
2024-01-11T01:32:09.510Z,72.93
2024-01-11T01:34:12.333Z,73.39
2024-01-11T01:36:15.412Z,73.32
2024-01-11T01:38:19.849Z,73.09
2024-01-11T01:40:22.565Z,73.24
2024-01-11T01:42:25.118Z,73.28
2024-01-11T01:44:28.110Z,73.12
2024-01-11T01:46:31.021Z,73.29
2024-01-11T01:48:34.576Z,72.89
2024-01-11T01:50:37.721Z,73.36
2024-01-11T01:52:43.047Z,73.53
2024-01-11T01:54:46.674Z,73.31
2024-01-11T01:56:50.499Z,73.43
2024-01-11T01:58:55.113Z,73.03
2024-01-11T02:00:59.230Z,73.39
2024-01-11T02:03:02.525Z,73.48
2024-01-11T02:05:07.303Z,73.12
2024-01-11T02:07:10.659Z,73.17
2024-01-11T02:09:15.520Z,73.06
2024-01-11T02:11:20.757Z,72.78
2024-01-11T02:13:23.858Z,73.74
2024-01-11T02:15:26.853Z,73.10
2024-01-11T02:17:29.620Z,73.29
2024-01-11T02:19:33.039Z,73.19
2024-01-11T02:21:36.495Z,72.92
2024-01-11T02:24:07.725Z,73.31
2024-01-11T02:26:10.709Z,73.11
2024-01-11T02:28:14.251Z,73.54
2024-01-11T02:30:18.100Z,73.48
2024-01-11T02:32:21.781Z,73.85
2024-01-11T02:34:25.906Z,73.97
2024-01-11T02:36:29.271Z,73.59
2024-01-11T02:38:31.782Z,74.00
2024-01-11T02:40:35.730Z,73.96
2024-01-11T02:42:38.209Z,74.18
2024-01-11T02:44:40.940Z,73.63
2024-01-11T02:46:43.361Z,74.33
2024-01-11T02:48:46.245Z,74.10
2024-01-11T02:50:50.388Z,74.58
2024-01-11T02:52:52.857Z,74.28
2024-01-11T02:54:55.496Z,73.57
2024-01-11T02:56:58.702Z,73.96
2024-01-11T02:59:01.262Z,74.16
2024-01-11T03:01:03.772Z,73.78
2024-01-11T03:03:07.045Z,73.75
2024-01-11T03:05:10.347Z,74.24
2024-01-11T03:07:12.666Z,74.62
2024-01-11T03:09:15.472Z,74.40
2024-01-11T03:11:18.564Z,74.49
2024-01-11T03:13:21.092Z,73.87
2024-01-11T03:15:23.813Z,74.00
2024-01-11T03:17:27.629Z,74.30
2024-01-11T03:19:30.195Z,73.09
2024-01-11T03:21:32.778Z,73.35
2024-01-11T03:23:35.139Z,73.94
2024-01-11T03:25:37.541Z,73.79
2024-01-11T03:27:39.839Z,73.40
2024-01-11T03:29:42.447Z,73.17
2024-01-11T03:31:46.604Z,72.73
2024-01-11T03:33:49.326Z,72.95
2024-01-11T03:35:51.900Z,72.99
2024-01-11T03:37:54.486Z,73.05
2024-01-11T03:39:56.944Z,73.13
2024-01-11T03:41:59.476Z,73.53
2024-01-11T03:44:02.526Z,73.29
2024-01-11T03:46:05.539Z,73.31
2024-01-11T03:48:08.185Z,73.96
2024-01-11T03:50:10.908Z,73.76
2024-01-11T03:52:13.364Z,74.00
2024-01-11T03:54:16.107Z,74.15
2024-01-11T03:56:18.516Z,74.21
2024-01-11T03:58:20.864Z,74.20
2024-01-11T04:00:23.767Z,74.29
2024-01-11T04:02:27.031Z,74.27
2024-01-11T04:04:29.835Z,73.79
2024-01-11T04:06:33.092Z,73.97
2024-01-11T04:08:36.198Z,74.09
2024-01-11T04:10:38.864Z,74.03
2024-01-11T04:12:44.203Z,73.44
2024-01-11T04:14:46.783Z,73.35
2024-01-11T04:16:50.328Z,72.86
2024-01-11T04:18:53.520Z,73.40
2024-01-11T04:20:55.981Z,73.26
2024-01-11T04:22:58.918Z,73.47
2024-01-11T04:25:01.844Z,72.81
2024-01-11T04:27:04.508Z,72.72
2024-01-11T04:29:09.864Z,72.52
2024-01-11T04:31:12.317Z,73.14
2024-01-11T04:33:14.802Z,73.45
2024-01-11T04:35:17.856Z,73.78
2024-01-11T04:37:20.505Z,73.83
2024-01-11T04:39:23.262Z,73.42
2024-01-11T04:41:26.031Z,74.22
2024-01-11T04:43:28.588Z,73.83
2024-01-11T04:45:31.281Z,73.72
2024-01-11T04:47:33.951Z,73.97
2024-01-11T04:49:36.962Z,73.61
2024-01-11T04:51:39.428Z,74.16
2024-01-11T04:53:42.722Z,74.00
2024-01-11T04:55:45.313Z,73.67
2024-01-11T04:57:47.974Z,74.10
2024-01-11T04:59:50.461Z,73.47
2024-01-11T05:01:53.002Z,73.20
2024-01-11T05:03:55.948Z,73.80
2024-01-11T05:05:59.755Z,73.71
2024-01-11T05:08:02.411Z,73.96
2024-01-11T05:10:05.659Z,72.88
2024-01-11T05:12:08.876Z,73.33
2024-01-11T05:14:11.478Z,73.24
2024-01-11T05:16:30.063Z,74.09
2024-01-11T05:18:35.161Z,73.56
2024-01-11T05:20:38.776Z,74.60
2024-01-11T05:22:41.325Z,74.07
2024-01-11T05:24:43.768Z,73.93
2024-01-11T05:26:47.646Z,74.08
2024-01-11T05:28:50.365Z,73.92
2024-01-11T05:30:53.075Z,73.75
2024-01-11T05:32:56.242Z,73.49
2024-01-11T05:34:58.997Z,73.68
2024-01-11T05:37:01.538Z,73.85
2024-01-11T05:39:04.776Z,74.04
2024-01-11T05:41:08.455Z,74.06
2024-01-11T05:43:11.244Z,74.43
2024-01-11T05:45:18.051Z,74.38
2024-01-11T05:47:21.727Z,74.14
2024-01-11T05:49:24.269Z,74.68
2024-01-11T05:51:27.162Z,74.86
2024-01-11T05:53:29.846Z,74.26
2024-01-11T05:55:32.579Z,74.64
2024-01-11T05:57:35.089Z,75.17
2024-01-11T05:59:37.988Z,74.91
2024-01-11T06:01:47.693Z,74.41
2024-01-11T06:03:50.431Z,74.29
2024-01-11T06:05:53.310Z,74.59
2024-01-11T06:07:56.192Z,74.69
2024-01-11T06:09:59.172Z,74.62
2024-01-11T06:12:02.691Z,75.40
2024-01-11T06:14:05.373Z,75.12
2024-01-11T06:16:12.263Z,75.33
2024-01-11T06:18:16.086Z,75.46
2024-01-11T06:20:18.783Z,75.42
2024-01-11T06:22:22.184Z,75.54
2024-01-11T06:24:24.495Z,74.66
2024-01-11T06:26:26.949Z,75.15
2024-01-11T06:28:29.534Z,74.86
2024-01-11T06:30:31.817Z,74.28
2024-01-11T06:32:34.415Z,75.01
2024-01-11T06:34:38.155Z,75.49
2024-01-11T06:36:40.777Z,75.35
2024-01-11T06:38:43.262Z,75.55
2024-01-11T06:40:45.966Z,76.31
2024-01-11T06:42:48.577Z,76.00
2024-01-11T06:44:51.231Z,75.64
2024-01-11T06:46:53.908Z,75.40
2024-01-11T06:48:56.870Z,75.62
2024-01-11T06:51:02.183Z,76.13
2024-01-11T06:53:06.267Z,75.82
2024-01-11T06:55:09.371Z,75.88
2024-01-11T06:57:11.843Z,76.63
2024-01-11T06:59:15.123Z,77.10
2024-01-11T07:01:18.665Z,77.09
2024-01-11T07:03:21.466Z,76.99
2024-01-11T07:05:24.164Z,77.59
2024-01-11T07:07:27.955Z,77.40
2024-01-11T07:09:30.611Z,77.86
2024-01-11T07:11:33.770Z,78.23
2024-01-11T07:13:37.000Z,78.36
2024-01-11T07:15:39.702Z,78.39
2024-01-11T07:17:42.164Z,78.48
2024-01-11T07:19:45.010Z,79.00
2024-01-11T07:21:47.725Z,78.96
2024-01-11T07:23:50.758Z,79.16
2024-01-11T07:25:53.598Z,79.06
2024-01-11T07:27:56.448Z,78.82
2024-01-11T07:29:59.979Z,79.53
2024-01-11T07:32:03.226Z,79.43
2024-01-11T07:34:06.284Z,79.77
2024-01-11T07:36:09.174Z,79.23
2024-01-11T07:38:11.832Z,80.00
2024-01-11T07:40:15.184Z,79.62
2024-01-11T07:42:17.926Z,79.74
2024-01-11T07:44:20.502Z,80.49
2024-01-11T07:46:32.819Z,79.67
2024-01-11T07:48:41.416Z,78.92
2024-01-11T07:50:44.005Z,78.82
2024-01-11T07:52:47.226Z,78.73
2024-01-11T07:54:50.295Z,78.53
2024-01-11T07:56:53.335Z,78.20
2024-01-11T07:58:56.976Z,78.32
2024-01-11T08:00:59.503Z,78.03
2024-01-11T08:03:02.033Z,78.18
2024-01-11T08:05:05.800Z,78.55
2024-01-11T08:07:08.638Z,78.47
2024-01-11T08:09:11.953Z,78.74
2024-01-11T08:11:14.828Z,78.85
2024-01-11T08:13:19.787Z,78.77
2024-01-11T08:15:23.036Z,78.40
2024-01-11T08:17:26.034Z,79.06
2024-01-11T08:19:28.863Z,78.34
2024-01-11T08:21:31.497Z,78.49
2024-01-11T08:23:34.699Z,78.15
2024-01-11T08:25:37.310Z,78.20
2024-01-11T08:27:40.251Z,78.30
2024-01-11T08:29:42.733Z,78.48
2024-01-11T08:31:45.247Z,78.73
2024-01-11T08:33:48.029Z,78.62
2024-01-11T08:35:51.189Z,78.61
2024-01-11T08:37:53.604Z,78.63
2024-01-11T08:39:56.219Z,79.18
2024-01-11T08:41:59.671Z,78.34
2024-01-11T08:44:04.094Z,78.63
2024-01-11T08:46:06.715Z,78.33
2024-01-11T08:48:09.333Z,78.67
2024-01-11T08:50:16.860Z,78.63
2024-01-11T08:52:20.622Z,79.25
2024-01-11T08:54:23.293Z,79.24
2024-01-11T08:56:26.090Z,78.90
2024-01-11T08:58:28.420Z,78.73
2024-01-11T09:00:31.235Z,78.15
2024-01-11T09:02:34.084Z,78.77
2024-01-11T09:04:36.646Z,78.31
2024-01-11T09:06:39.410Z,78.62
2024-01-11T09:08:44.573Z,78.21
2024-01-11T09:10:47.103Z,77.84
2024-01-11T09:12:49.611Z,77.83
2024-01-11T09:14:52.006Z,77.82
2024-01-11T09:16:54.528Z,78.07
2024-01-11T09:18:58.645Z,78.38
2024-01-11T09:21:01.212Z,78.25
2024-01-11T09:23:05.413Z,78.06
2024-01-11T09:25:09.972Z,78.03
2024-01-11T09:27:12.666Z,78.02
2024-01-11T09:29:15.369Z,77.64
2024-01-11T09:31:18.084Z,77.94
2024-01-11T09:33:20.490Z,77.50
2024-01-11T09:35:26.520Z,77.76
2024-01-11T09:37:29.499Z,78.31
2024-01-11T09:39:32.617Z,77.81
2024-01-11T09:41:38.580Z,77.75
2024-01-11T09:43:43.789Z,77.68
2024-01-11T09:45:47.198Z,77.30
2024-01-11T09:47:52.250Z,78.05
2024-01-11T09:49:57.206Z,77.91
2024-01-11T09:52:03.058Z,78.11
2024-01-11T09:54:06.311Z,78.04
2024-01-11T09:56:12.947Z,78.28
2024-01-11T09:58:16.710Z,78.51
2024-01-11T10:00:23.508Z,78.64
2024-01-11T10:02:28.406Z,78.74
2024-01-11T10:04:30.891Z,78.44
2024-01-11T10:06:39.951Z,78.01
2024-01-11T10:08:42.921Z,77.93
2024-01-11T10:10:45.223Z,77.82
2024-01-11T10:12:50.095Z,78.15
2024-01-11T10:14:53.808Z,77.86
2024-01-11T10:16:56.908Z,77.51
2024-01-11T10:18:59.855Z,78.04
2024-01-11T10:21:03.260Z,77.74
2024-01-11T10:23:06.717Z,77.67
2024-01-11T10:25:12.872Z,78.01
2024-01-11T10:27:15.550Z,77.74
2024-01-11T10:29:19.873Z,78.07
2024-01-11T10:31:28.954Z,77.64
2024-01-11T10:33:31.600Z,77.68
2024-01-11T10:35:37.485Z,77.96
2024-01-11T10:37:40.779Z,77.76
2024-01-11T10:39:44.649Z,77.74
2024-01-11T10:41:53.414Z,77.15
2024-01-11T10:44:00.498Z,77.70
2024-01-11T10:46:06.175Z,77.26
2024-01-11T10:48:15.697Z,77.31
2024-01-11T10:50:21.063Z,77.14
2024-01-11T10:52:30.051Z,76.87
2024-01-11T10:54:36.077Z,76.61
2024-01-11T10:56:42.854Z,77.07
2024-01-11T10:58:46.495Z,76.82
2024-01-11T11:00:51.268Z,76.61
2024-01-11T11:02:56.531Z,76.42
2024-01-11T11:05:00.771Z,75.83
2024-01-11T11:07:04.072Z,75.55
2024-01-11T11:09:09.379Z,75.19
2024-01-11T11:11:12.792Z,74.92
2024-01-11T11:13:16.746Z,74.99
2024-01-11T11:15:21.687Z,74.73
2024-01-11T11:17:24.062Z,75.03
2024-01-11T11:19:27.449Z,74.70
2024-01-11T11:21:30.341Z,74.36
2024-01-11T11:23:32.843Z,74.50
2024-01-11T11:25:36.512Z,74.16
2024-01-11T11:27:39.703Z,73.73
2024-01-11T11:29:43.751Z,73.86
2024-01-11T11:31:49.322Z,73.52
2024-01-11T11:33:54.673Z,73.37
2024-01-11T11:36:01.282Z,72.40
2024-01-11T11:38:05.132Z,72.61
2024-01-11T11:40:12.252Z,71.31
2024-01-11T11:42:16.779Z,70.93
2024-01-11T11:44:19.665Z,71.12
2024-01-11T11:46:22.232Z,70.39
2024-01-11T11:48:31.464Z,70.03
2024-01-11T11:50:36.118Z,70.04
2024-01-11T11:52:41.222Z,69.85
2024-01-11T11:54:46.226Z,69.54
2024-01-11T11:56:49.130Z,70.02
2024-01-11T11:58:57.114Z,69.86
2024-01-11T12:01:01.055Z,70.12
2024-01-11T12:03:05.756Z,69.75
2024-01-11T12:05:09.564Z,69.60
2024-01-11T12:07:13.263Z,70.54
2024-01-11T12:09:22.763Z,69.85
2024-01-11T12:11:27.357Z,69.24
2024-01-11T12:13:32.446Z,69.35
2024-01-11T12:15:35.644Z,70.08
2024-01-11T12:17:40.515Z,69.93
2024-01-11T12:19:44.081Z,70.01
2024-01-11T12:21:46.614Z,69.56
2024-01-11T12:23:50.404Z,69.91
2024-01-11T12:25:54.595Z,69.67
2024-01-11T12:27:57.983Z,69.89
2024-01-11T12:30:02.811Z,69.44
2024-01-11T12:32:06.628Z,68.75
2024-01-11T12:34:10.345Z,68.57
2024-01-11T12:36:13.791Z,68.88
2024-01-11T12:38:17.400Z,68.93
2024-01-11T12:40:20.223Z,68.43
2024-01-11T12:42:23.130Z,68.03
2024-01-11T12:44:26.267Z,68.12
2024-01-11T12:46:30.076Z,68.51
2024-01-11T12:48:33.453Z,68.39
2024-01-11T12:50:37.435Z,68.65
2024-01-11T12:52:40.827Z,69.35
2024-01-11T12:54:48.605Z,69.06
2024-01-11T12:56:52.129Z,69.25
2024-01-11T12:59:08.506Z,69.54
2024-01-11T13:01:12.361Z,69.51
2024-01-11T13:03:15.041Z,69.38
2024-01-11T13:05:17.911Z,69.78
2024-01-11T13:07:21.377Z,69.69
2024-01-11T13:09:24.796Z,69.18
2024-01-11T13:11:28.020Z,69.76
2024-01-11T13:13:31.941Z,69.87
2024-01-11T13:15:34.371Z,69.43
2024-01-11T13:17:37.901Z,70.06
2024-01-11T13:19:41.456Z,69.63
2024-01-11T13:21:44.562Z,69.62
2024-01-11T13:23:47.825Z,69.03
2024-01-11T13:25:51.717Z,69.14
2024-01-11T13:27:55.678Z,69.46
2024-01-11T13:29:58.589Z,69.37
2024-01-11T13:32:03.810Z,68.68
2024-01-11T13:34:08.858Z,69.08
2024-01-11T13:36:12.009Z,68.13
2024-01-11T13:38:15.006Z,68.79
2024-01-11T13:40:17.547Z,67.97
2024-01-11T13:42:20.438Z,67.99
2024-01-11T13:44:25.074Z,68.43
2024-01-11T13:46:28.781Z,68.06
2024-01-11T13:48:33.557Z,68.44
2024-01-11T13:50:36.805Z,67.59
2024-01-11T13:52:39.938Z,67.77
2024-01-11T13:54:42.852Z,67.58
2024-01-11T13:56:46.094Z,67.26
2024-01-11T13:58:49.475Z,67.55
2024-01-11T14:00:53.193Z,67.31
2024-01-11T14:02:56.770Z,66.91
2024-01-11T14:05:00.705Z,66.73
2024-01-11T14:07:04.919Z,67.34
2024-01-11T14:09:11.308Z,67.48
2024-01-11T14:11:14.344Z,67.72
2024-01-11T14:13:16.867Z,67.48
2024-01-11T14:15:20.191Z,67.76
2024-01-11T14:17:23.103Z,67.29
2024-01-11T14:19:25.756Z,67.39
2024-01-11T14:21:28.849Z,68.10
2024-01-11T14:23:31.743Z,67.61
2024-01-11T14:25:34.560Z,67.47
2024-01-11T14:27:37.617Z,67.91
2024-01-11T14:29:41.126Z,66.97
2024-01-11T14:31:43.997Z,67.93
2024-01-11T14:33:47.743Z,67.63
2024-01-11T14:35:50.521Z,67.91
2024-01-11T14:37:54.319Z,67.56
2024-01-11T14:39:57.092Z,67.84
2024-01-11T14:42:00.086Z,67.76
2024-01-11T14:44:03.239Z,68.05
2024-01-11T14:46:07.569Z,67.54
2024-01-11T14:48:10.418Z,67.92
2024-01-11T14:50:13.479Z,67.51
2024-01-11T14:52:18.137Z,68.71
2024-01-11T14:54:21.894Z,68.48
2024-01-11T14:56:25.241Z,68.64
2024-01-11T14:58:27.974Z,68.90
2024-01-11T15:00:30.996Z,68.55
2024-01-11T15:02:34.061Z,68.84
2024-01-11T15:04:37.951Z,69.12
2024-01-11T15:06:40.587Z,69.20
2024-01-11T15:08:43.697Z,68.85
2024-01-11T15:10:50.177Z,68.85
2024-01-11T15:12:53.257Z,68.94
2024-01-11T15:14:56.044Z,68.96
2024-01-11T15:16:59.656Z,69.85
2024-01-11T15:19:02.765Z,70.28
2024-01-11T15:21:05.556Z,70.38
2024-01-11T15:23:08.860Z,70.53
2024-01-11T15:25:12.346Z,70.67
2024-01-11T15:27:17.695Z,70.47
2024-01-11T15:29:20.529Z,71.56
2024-01-11T15:31:23.844Z,71.51
2024-01-11T15:33:27.274Z,71.40
2024-01-11T15:35:30.691Z,71.00
2024-01-11T15:37:34.856Z,71.84
2024-01-11T15:39:37.713Z,71.71
2024-01-11T15:41:40.956Z,72.56
2024-01-11T15:43:44.304Z,72.24
2024-01-11T15:45:47.772Z,72.88
2024-01-11T15:47:51.229Z,73.49
2024-01-11T15:49:54.099Z,73.87
2024-01-11T15:51:57.574Z,74.71
2024-01-11T15:54:00.168Z,75.51
2024-01-11T15:56:03.333Z,75.32
2024-01-11T15:58:06.595Z,75.61
2024-01-11T16:00:13.816Z,75.87
2024-01-11T16:02:17.379Z,76.37
2024-01-11T16:04:20.246Z,76.89
2024-01-11T16:06:23.064Z,76.28
2024-01-11T16:08:26.159Z,76.60
2024-01-11T16:10:28.725Z,77.03
2024-01-11T16:12:31.801Z,77.66
2024-01-11T16:14:34.528Z,77.80
2024-01-11T16:16:37.464Z,78.28
2024-01-11T16:18:40.247Z,78.19
2024-01-11T16:20:43.979Z,78.77
2024-01-11T16:22:47.042Z,79.00
2024-01-11T16:24:50.551Z,78.77
2024-01-11T16:26:53.626Z,79.35
2024-01-11T16:28:57.059Z,79.35
2024-01-11T16:31:00.499Z,79.21
2024-01-11T16:33:04.568Z,79.81
2024-01-11T16:35:08.131Z,80.03
2024-01-11T16:37:11.637Z,80.15
2024-01-11T16:39:14.689Z,80.32
2024-01-11T16:41:17.721Z,80.01
2024-01-11T16:43:20.691Z,80.68
2024-01-11T16:45:24.076Z,80.42
2024-01-11T16:47:26.743Z,80.59
2024-01-11T16:49:30.306Z,81.33
2024-01-11T16:51:33.292Z,80.80
2024-01-11T16:53:36.349Z,80.88
2024-01-11T16:55:42.318Z,80.92
2024-01-11T16:57:45.521Z,81.35
2024-01-11T16:59:49.024Z,81.01
2024-01-11T17:01:52.079Z,81.41
2024-01-11T17:03:54.884Z,81.40
2024-01-11T17:05:58.563Z,81.10
2024-01-11T17:08:01.117Z,81.78
2024-01-11T17:10:04.389Z,81.48
2024-01-11T17:12:07.882Z,81.60
2024-01-11T17:14:10.643Z,81.34
2024-01-11T17:16:21.479Z,80.81
2024-01-11T17:18:24.551Z,80.99
2024-01-11T17:20:27.998Z,81.06
2024-01-11T17:22:31.843Z,81.14
2024-01-11T17:24:35.309Z,81.40
2024-01-11T17:26:38.547Z,81.63
2024-01-11T17:28:41.390Z,81.12
2024-01-11T17:30:44.361Z,81.66
2024-01-11T17:32:47.595Z,81.35
2024-01-11T17:34:54.750Z,82.21
2024-01-11T17:36:57.856Z,82.63
2024-01-11T17:39:02.253Z,81.85
2024-01-11T17:41:06.149Z,82.69
2024-01-11T17:43:10.553Z,82.40
2024-01-11T17:45:13.569Z,82.50
2024-01-11T17:47:17.230Z,82.55
2024-01-11T17:49:20.107Z,82.79
2024-01-11T17:51:23.288Z,82.23
2024-01-11T17:53:26.106Z,82.47
2024-01-11T17:55:29.817Z,82.27
2024-01-11T18:00:11.359Z,82.05
2024-01-11T18:02:14.423Z,82.26
2024-01-11T18:04:17.704Z,82.24
2024-01-11T18:06:20.792Z,81.68
2024-01-11T18:08:24.408Z,82.05
2024-01-11T18:10:27.195Z,82.37
2024-01-11T18:12:30.603Z,82.05
2024-01-11T18:14:33.406Z,82.19
2024-01-11T18:16:36.733Z,82.49
2024-01-11T18:18:40.285Z,82.37
2024-01-11T18:20:43.689Z,82.26
2024-01-11T18:22:46.283Z,82.21
2024-01-11T18:24:49.249Z,82.56
2024-01-11T18:26:53.220Z,82.09
2024-01-11T18:28:56.945Z,82.57
2024-01-11T18:31:00.396Z,82.93
2024-01-11T18:33:04.457Z,82.64
2024-01-11T18:35:10.663Z,83.35
2024-01-11T18:37:13.779Z,83.10
2024-01-11T18:39:19.815Z,83.44
2024-01-11T18:41:23.256Z,83.16
2024-01-11T18:43:26.928Z,83.91
2024-01-11T18:45:33.023Z,83.52
2024-01-11T18:47:36.147Z,83.45
2024-01-11T18:49:39.308Z,83.24
2024-01-11T18:51:43.692Z,83.67
2024-01-11T18:53:47.530Z,83.29
2024-01-11T18:55:50.836Z,83.59
2024-01-11T18:57:53.963Z,83.10
2024-01-11T18:59:57.493Z,83.21
2024-01-11T19:02:00.874Z,83.22
2024-01-11T19:04:04.708Z,83.25
2024-01-11T19:06:10.303Z,83.80
2024-01-11T19:08:13.722Z,84.10
2024-01-11T19:10:17.385Z,84.40
2024-01-11T19:12:20.481Z,83.72
2024-01-11T19:14:23.509Z,83.99
2024-01-11T19:16:26.689Z,84.25
2024-01-11T19:18:30.435Z,84.44
2024-01-11T19:20:33.516Z,84.56
2024-01-11T19:22:36.890Z,84.30
2024-01-11T19:24:40.345Z,85.07
2024-01-11T19:26:44.442Z,85.28
2024-01-11T19:28:48.277Z,84.61
2024-01-11T19:30:56.313Z,85.26
2024-01-11T19:33:08.322Z,84.72
2024-01-11T19:35:12.228Z,85.36
2024-01-11T19:37:18.738Z,85.21
2024-01-11T19:39:23.902Z,84.73
2024-01-11T19:41:28.423Z,85.00
2024-01-11T19:43:34.888Z,85.19
2024-01-11T19:45:37.839Z,85.43
2024-01-11T19:47:41.319Z,85.22
2024-01-11T19:49:44.916Z,84.73
2024-01-11T19:51:48.746Z,85.14
2024-01-11T19:53:52.577Z,85.00
2024-01-11T19:55:55.977Z,85.05
2024-01-11T19:57:58.867Z,84.80
2024-01-11T20:00:02.006Z,85.08
2024-01-11T20:02:13.978Z,84.91
2024-01-11T20:04:17.511Z,85.23
2024-01-11T20:06:21.461Z,85.31
2024-01-11T20:08:26.240Z,85.32
2024-01-11T20:10:29.879Z,84.91
2024-01-11T20:12:33.773Z,85.36
2024-01-11T20:14:38.135Z,85.11
2024-01-11T20:16:44.534Z,85.25
2024-01-11T20:18:47.511Z,85.53
2024-01-11T20:20:53.660Z,85.34
2024-01-11T20:22:58.038Z,84.92
2024-01-11T20:25:01.569Z,84.93
2024-01-11T20:27:06.247Z,85.16
2024-01-11T20:29:09.500Z,84.97
2024-01-11T20:31:14.237Z,85.83
2024-01-11T20:33:17.758Z,85.20
2024-01-11T20:35:21.016Z,85.64
2024-01-11T20:37:25.199Z,85.07
2024-01-11T20:39:28.522Z,85.67
2024-01-11T20:41:32.269Z,85.51
2024-01-11T20:43:36.048Z,85.17
2024-01-11T20:45:39.956Z,85.15
2024-01-11T20:47:42.685Z,85.34
2024-01-11T20:49:45.516Z,85.59
2024-01-11T20:51:49.121Z,85.78
2024-01-11T20:53:57.905Z,85.52
2024-01-11T20:56:02.241Z,85.27
2024-01-11T20:58:05.772Z,85.77
2024-01-11T21:00:10.554Z,85.44
2024-01-11T21:02:13.834Z,85.48
2024-01-11T21:04:16.649Z,85.25
2024-01-11T21:06:20.107Z,85.44
2024-01-11T21:08:23.183Z,85.05
2024-01-11T21:10:28.309Z,85.66
2024-01-11T21:12:31.256Z,85.90
2024-01-11T21:14:35.319Z,85.79
2024-01-11T21:16:40.028Z,85.51
2024-01-11T21:18:43.636Z,85.95
2024-01-11T21:20:50.137Z,85.63
2024-01-11T21:22:53.385Z,86.13
2024-01-11T21:24:57.350Z,85.94
2024-01-11T21:27:00.601Z,85.96
2024-01-11T21:29:03.853Z,86.66
2024-01-11T21:31:07.124Z,86.24
2024-01-11T21:33:10.438Z,85.92
2024-01-11T21:35:13.990Z,85.94
2024-01-11T21:37:17.214Z,85.79
2024-01-11T21:39:19.809Z,85.91
2024-01-11T21:41:29.388Z,86.06
2024-01-11T21:43:33.608Z,86.42
2024-01-11T21:45:37.991Z,86.61
2024-01-11T21:47:40.935Z,86.04
2024-01-11T21:49:44.523Z,86.41
2024-01-11T21:51:50.841Z,86.33
2024-01-11T21:53:59.836Z,86.29
2024-01-11T21:56:02.748Z,86.44
2024-01-11T21:58:05.971Z,86.54
2024-01-11T22:00:10.352Z,86.34
2024-01-11T22:02:13.032Z,86.50
2024-01-11T22:04:15.896Z,86.43
2024-01-11T22:06:19.211Z,86.38
2024-01-11T22:08:23.121Z,86.24
2024-01-11T22:10:25.892Z,86.56
2024-01-11T22:12:28.479Z,86.54
2024-01-11T22:14:31.347Z,86.70
2024-01-11T22:16:35.074Z,86.39
2024-01-11T22:18:38.570Z,86.48
2024-01-11T22:20:42.546Z,86.65
2024-01-11T22:22:45.244Z,86.60
2024-01-11T22:24:47.829Z,86.79
2024-01-11T22:26:51.307Z,86.62
2024-01-11T22:28:54.229Z,87.08
2024-01-11T22:30:57.239Z,86.97
2024-01-11T22:33:00.026Z,86.73
2024-01-11T22:35:05.146Z,87.13
2024-01-11T22:37:07.803Z,87.18
2024-01-11T22:39:10.142Z,87.02
2024-01-11T22:41:12.708Z,87.46
2024-01-11T22:43:15.988Z,87.48
2024-01-11T22:45:19.184Z,86.98
2024-01-11T22:47:21.754Z,87.40
2024-01-11T22:49:25.298Z,86.95
2024-01-11T22:51:28.104Z,87.34
2024-01-11T22:53:30.732Z,86.39
2024-01-11T22:55:34.424Z,86.89
2024-01-11T22:57:37.645Z,86.70
2024-01-11T22:59:40.208Z,87.03
2024-01-11T23:01:43.926Z,86.77
2024-01-11T23:03:47.453Z,86.85
2024-01-11T23:05:50.018Z,87.03
2024-01-11T23:07:53.283Z,87.07
2024-01-11T23:09:56.695Z,86.70
2024-01-11T23:12:02.365Z,86.39
2024-01-11T23:14:06.334Z,86.32
2024-01-11T23:16:09.456Z,86.31
2024-01-11T23:18:12.948Z,86.51
2024-01-11T23:20:16.935Z,86.25
2024-01-11T23:22:20.065Z,86.43
2024-01-11T23:24:22.445Z,86.08
2024-01-11T23:26:25.015Z,86.21
2024-01-11T23:28:27.613Z,86.24
2024-01-11T23:30:30.096Z,86.39
2024-01-11T23:32:33.166Z,86.39
2024-01-11T23:34:36.281Z,86.93
2024-01-11T23:36:39.534Z,86.30
2024-01-11T23:38:42.255Z,86.72
2024-01-11T23:40:44.654Z,86.62
2024-01-11T23:42:46.996Z,86.10
2024-01-11T23:44:49.940Z,86.56
2024-01-11T23:46:52.370Z,86.53
2024-01-11T23:48:54.997Z,86.29
2024-01-11T23:50:57.971Z,86.54
2024-01-11T23:53:02.118Z,86.37
2024-01-11T23:55:06.293Z,87.07
2024-01-11T23:57:09.437Z,87.27
2024-01-11T23:59:12.325Z,87.02
